sensor_id;sensor_type;location;lat;lon;timestamp;pressure;altitude;pressure_sealevel;temperature;humidity
7906;BME280;13291;40.472;-3.878;2022-07-29T00:01:27;52701.94;;;-139.96;27.33
7906;BME280;13291;40.472;-3.878;2022-07-29T00:03:54;52713.94;;;-139.96;27.35
7906;BME280;13291;40.472;-3.878;2022-07-29T00:06:21;52741.94;;;-139.96;27.40
7906;BME280;13291;40.472;-3.878;2022-07-29T00:08:48;52719.94;;;-139.96;27.23
7906;BME280;13291;40.472;-3.878;2022-07-29T00:11:15;52721.94;;;-139.96;27.03
7906;BME280;13291;40.472;-3.878;2022-07-29T00:13:42;52733.94;;;-139.96;27.25
7906;BME280;13291;40.472;-3.878;2022-07-29T00:16:10;52741.94;;;-139.96;27.03
7906;BME280;13291;40.472;-3.878;2022-07-29T00:18:37;52727.94;;;-139.96;27.59
7906;BME280;13291;40.472;-3.878;2022-07-29T00:21:04;52729.94;;;-139.96;27.40
7906;BME280;13291;40.472;-3.878;2022-07-29T00:23:31;52729.94;;;-139.96;27.73
7906;BME280;13291;40.472;-3.878;2022-07-29T00:25:58;52773.94;;;-139.96;28.24
7906;BME280;13291;40.472;-3.878;2022-07-29T00:28:25;52735.94;;;-139.96;27.87
7906;BME280;13291;40.472;-3.878;2022-07-29T00:30:52;52733.94;;;-139.96;28.00
7906;BME280;13291;40.472;-3.878;2022-07-29T00:33:20;52753.94;;;-139.96;28.08
7906;BME280;13291;40.472;-3.878;2022-07-29T00:35:47;52755.94;;;-139.96;28.14
7906;BME280;13291;40.472;-3.878;2022-07-29T00:38:16;52725.94;;;-139.96;28.05
7906;BME280;13291;40.472;-3.878;2022-07-29T00:40:43;52727.94;;;-139.96;28.23
7906;BME280;13291;40.472;-3.878;2022-07-29T00:43:11;52757.94;;;-139.96;28.28
7906;BME280;13291;40.472;-3.878;2022-07-29T00:45:38;52741.94;;;-139.96;28.24
7906;BME280;13291;40.472;-3.878;2022-07-29T00:48:05;52741.94;;;-139.96;28.60
7906;BME280;13291;40.472;-3.878;2022-07-29T00:50:35;52765.94;;;-139.96;28.92
7906;BME280;13291;40.472;-3.878;2022-07-29T00:53:03;52747.94;;;-139.96;28.26
7906;BME280;13291;40.472;-3.878;2022-07-29T00:55:30;52773.94;;;-139.96;28.27
7906;BME280;13291;40.472;-3.878;2022-07-29T00:57:58;52751.94;;;-139.96;27.80
7906;BME280;13291;40.472;-3.878;2022-07-29T01:00:26;52741.94;;;-139.96;27.82
7906;BME280;13291;40.472;-3.878;2022-07-29T01:02:53;52751.94;;;-139.96;27.97
7906;BME280;13291;40.472;-3.878;2022-07-29T01:05:21;52765.94;;;-139.96;28.36
7906;BME280;13291;40.472;-3.878;2022-07-29T01:07:53;52759.94;;;-139.96;28.04
7906;BME280;13291;40.472;-3.878;2022-07-29T01:10:21;52757.94;;;-139.96;27.80
7906;BME280;13291;40.472;-3.878;2022-07-29T01:12:50;52753.94;;;-139.96;28.15
7906;BME280;13291;40.472;-3.878;2022-07-29T01:15:18;52731.94;;;-139.96;28.20
7906;BME280;13291;40.472;-3.878;2022-07-29T01:17:50;52775.94;;;-139.96;28.16
7906;BME280;13291;40.472;-3.878;2022-07-29T01:20:25;52765.94;;;-139.96;28.22
7906;BME280;13291;40.472;-3.878;2022-07-29T01:23:20;52765.94;;;-139.96;28.62
7906;BME280;13291;40.472;-3.878;2022-07-29T01:26:28;52765.94;;;-139.96;28.43
7906;BME280;13291;40.472;-3.878;2022-07-29T01:29:03;52759.94;;;-139.96;28.58
7906;BME280;13291;40.472;-3.878;2022-07-29T01:31:35;52775.94;;;-139.96;28.93
7906;BME280;13291;40.472;-3.878;2022-07-29T01:34:08;52757.94;;;-139.96;28.98
7906;BME280;13291;40.472;-3.878;2022-07-29T01:36:40;52753.94;;;-139.96;28.62
7906;BME280;13291;40.472;-3.878;2022-07-29T01:39:11;52777.94;;;-139.96;28.70
7906;BME280;13291;40.472;-3.878;2022-07-29T01:41:43;52733.94;;;-139.96;28.01
7906;BME280;13291;40.472;-3.878;2022-07-29T01:44:20;52783.94;;;-139.96;28.00
7906;BME280;13291;40.472;-3.878;2022-07-29T01:46:53;52789.94;;;-139.96;28.12
7906;BME280;13291;40.472;-3.878;2022-07-29T01:49:25;52781.94;;;-139.96;28.34
7906;BME280;13291;40.472;-3.878;2022-07-29T01:51:57;52755.94;;;-139.96;28.54
7906;BME280;13291;40.472;-3.878;2022-07-29T01:54:28;52753.94;;;-139.96;28.87
7906;BME280;13291;40.472;-3.878;2022-07-29T01:56:57;52749.94;;;-139.96;28.61
7906;BME280;13291;40.472;-3.878;2022-07-29T01:59:27;52775.94;;;-139.96;28.75
7906;BME280;13291;40.472;-3.878;2022-07-29T02:01:58;52773.94;;;-139.96;28.99
7906;BME280;13291;40.472;-3.878;2022-07-29T02:04:27;52769.94;;;-139.96;29.06
7906;BME280;13291;40.472;-3.878;2022-07-29T02:07:00;52781.94;;;-139.96;29.16
7906;BME280;13291;40.472;-3.878;2022-07-29T02:09:29;52777.94;;;-139.96;29.13
7906;BME280;13291;40.472;-3.878;2022-07-29T02:11:57;52779.94;;;-139.96;29.65
7906;BME280;13291;40.472;-3.878;2022-07-29T02:14:29;52747.94;;;-139.96;29.87
7906;BME280;13291;40.472;-3.878;2022-07-29T02:17:00;52781.94;;;-139.96;30.06
7906;BME280;13291;40.472;-3.878;2022-07-29T02:19:29;52729.94;;;-139.96;29.74
7906;BME280;13291;40.472;-3.878;2022-07-29T02:21:59;52783.94;;;-139.96;29.93
7906;BME280;13291;40.472;-3.878;2022-07-29T02:24:27;52781.94;;;-139.96;29.98
7906;BME280;13291;40.472;-3.878;2022-07-29T02:26:56;52767.94;;;-139.96;30.11
7906;BME280;13291;40.472;-3.878;2022-07-29T02:29:28;52765.94;;;-139.96;30.08
7906;BME280;13291;40.472;-3.878;2022-07-29T02:31:57;52771.94;;;-139.96;30.34
7906;BME280;13291;40.472;-3.878;2022-07-29T02:34:26;52745.94;;;-139.96;30.13
7906;BME280;13291;40.472;-3.878;2022-07-29T02:36:54;52785.94;;;-139.96;30.27
7906;BME280;13291;40.472;-3.878;2022-07-29T02:39:22;52753.94;;;-139.96;30.58
7906;BME280;13291;40.472;-3.878;2022-07-29T02:41:52;52787.94;;;-139.96;30.53
7906;BME280;13291;40.472;-3.878;2022-07-29T02:44:24;52771.94;;;-139.96;30.58
7906;BME280;13291;40.472;-3.878;2022-07-29T02:46:57;52769.94;;;-139.96;30.53
7906;BME280;13291;40.472;-3.878;2022-07-29T02:49:34;52767.94;;;-139.96;30.62
7906;BME280;13291;40.472;-3.878;2022-07-29T02:52:03;52789.94;;;-139.96;30.76
7906;BME280;13291;40.472;-3.878;2022-07-29T02:54:35;52785.94;;;-139.96;30.58
7906;BME280;13291;40.472;-3.878;2022-07-29T02:57:09;52781.94;;;-139.96;30.60
7906;BME280;13291;40.472;-3.878;2022-07-29T02:59:41;52765.94;;;-139.96;30.40
7906;BME280;13291;40.472;-3.878;2022-07-29T03:02:12;52735.94;;;-139.96;30.55
7906;BME280;13291;40.472;-3.878;2022-07-29T03:04:42;52797.94;;;-139.96;30.39
7906;BME280;13291;40.472;-3.878;2022-07-29T03:07:11;52771.94;;;-139.96;30.58
7906;BME280;13291;40.472;-3.878;2022-07-29T03:09:40;52789.94;;;-139.96;30.45
7906;BME280;13291;40.472;-3.878;2022-07-29T03:12:08;52753.94;;;-139.96;30.58
7906;BME280;13291;40.472;-3.878;2022-07-29T03:14:36;52761.94;;;-139.96;30.54
7906;BME280;13291;40.472;-3.878;2022-07-29T03:17:03;52745.94;;;-139.96;30.53
7906;BME280;13291;40.472;-3.878;2022-07-29T03:19:32;52757.94;;;-139.96;30.46
7906;BME280;13291;40.472;-3.878;2022-07-29T03:22:01;52781.94;;;-139.96;30.84
7906;BME280;13291;40.472;-3.878;2022-07-29T03:24:30;52761.94;;;-139.96;31.01
7906;BME280;13291;40.472;-3.878;2022-07-29T03:26:57;52753.94;;;-139.96;31.21
7906;BME280;13291;40.472;-3.878;2022-07-29T03:29:25;52753.94;;;-139.96;31.09
7906;BME280;13291;40.472;-3.878;2022-07-29T03:31:52;52725.94;;;-139.96;31.16
7906;BME280;13291;40.472;-3.878;2022-07-29T03:34:19;52789.94;;;-139.96;31.09
7906;BME280;13291;40.472;-3.878;2022-07-29T03:36:50;52755.94;;;-139.96;31.54
7906;BME280;13291;40.472;-3.878;2022-07-29T03:39:20;52791.94;;;-139.96;31.61
7906;BME280;13291;40.472;-3.878;2022-07-29T03:41:52;52771.94;;;-139.96;31.64
7906;BME280;13291;40.472;-3.878;2022-07-29T03:44:20;52789.94;;;-139.96;31.89
7906;BME280;13291;40.472;-3.878;2022-07-29T03:46:49;52797.94;;;-139.96;31.64
7906;BME280;13291;40.472;-3.878;2022-07-29T03:49:18;52785.94;;;-139.96;31.81
7906;BME280;13291;40.472;-3.878;2022-07-29T03:51:47;52757.94;;;-139.96;31.93
7906;BME280;13291;40.472;-3.878;2022-07-29T03:54:14;52791.94;;;-139.96;31.90
7906;BME280;13291;40.472;-3.878;2022-07-29T03:56:43;52785.94;;;-139.96;31.93
7906;BME280;13291;40.472;-3.878;2022-07-29T03:59:12;52783.94;;;-139.96;32.14
7906;BME280;13291;40.472;-3.878;2022-07-29T04:01:41;52765.94;;;-139.96;32.27
7906;BME280;13291;40.472;-3.878;2022-07-29T04:04:08;52781.94;;;-139.96;32.22
7906;BME280;13291;40.472;-3.878;2022-07-29T04:06:39;52787.94;;;-139.96;32.37
7906;BME280;13291;40.472;-3.878;2022-07-29T04:09:08;52793.94;;;-139.96;32.54
7906;BME280;13291;40.472;-3.878;2022-07-29T04:11:36;52777.94;;;-139.96;32.82
7906;BME280;13291;40.472;-3.878;2022-07-29T04:14:03;52789.94;;;-139.96;33.01
7906;BME280;13291;40.472;-3.878;2022-07-29T04:16:30;52811.94;;;-139.96;32.67
7906;BME280;13291;40.472;-3.878;2022-07-29T04:18:58;52779.94;;;-139.96;32.70
7906;BME280;13291;40.472;-3.878;2022-07-29T04:21:25;52793.94;;;-139.96;32.59
7906;BME280;13291;40.472;-3.878;2022-07-29T04:23:51;52795.94;;;-139.96;32.31
7906;BME280;13291;40.472;-3.878;2022-07-29T04:26:20;52825.94;;;-139.96;32.52
7906;BME280;13291;40.472;-3.878;2022-07-29T04:28:47;52811.94;;;-139.96;32.10
7906;BME280;13291;40.472;-3.878;2022-07-29T04:31:13;52793.94;;;-139.96;32.46
7906;BME280;13291;40.472;-3.878;2022-07-29T04:33:40;52781.94;;;-139.96;32.14
7906;BME280;13291;40.472;-3.878;2022-07-29T04:36:07;52787.94;;;-139.96;31.94
7906;BME280;13291;40.472;-3.878;2022-07-29T04:38:36;52801.94;;;-139.96;32.07
7906;BME280;13291;40.472;-3.878;2022-07-29T04:41:03;52797.94;;;-139.96;32.08
7906;BME280;13291;40.472;-3.878;2022-07-29T04:43:31;52801.94;;;-139.96;31.99
7906;BME280;13291;40.472;-3.878;2022-07-29T04:45:58;52803.94;;;-139.96;32.15
7906;BME280;13291;40.472;-3.878;2022-07-29T04:48:25;52787.94;;;-139.96;32.08
7906;BME280;13291;40.472;-3.878;2022-07-29T04:50:52;52791.94;;;-139.96;32.19
7906;BME280;13291;40.472;-3.878;2022-07-29T04:53:19;52793.94;;;-139.96;32.69
7906;BME280;13291;40.472;-3.878;2022-07-29T04:55:46;52785.94;;;-139.96;32.43
7906;BME280;13291;40.472;-3.878;2022-07-29T04:58:13;52799.94;;;-139.96;32.57
7906;BME280;13291;40.472;-3.878;2022-07-29T05:00:41;52789.94;;;-139.96;32.11
7906;BME280;13291;40.472;-3.878;2022-07-29T05:03:08;52767.94;;;-139.96;31.81
7906;BME280;13291;40.472;-3.878;2022-07-29T05:05:35;52759.94;;;-139.96;31.73
7906;BME280;13291;40.472;-3.878;2022-07-29T05:08:03;52821.94;;;-139.96;31.96
7906;BME280;13291;40.472;-3.878;2022-07-29T05:10:29;52793.94;;;-139.96;32.38
7906;BME280;13291;40.472;-3.878;2022-07-29T05:12:56;52811.94;;;-139.96;32.38
7906;BME280;13291;40.472;-3.878;2022-07-29T05:15:23;52823.94;;;-139.96;32.71
7906;BME280;13291;40.472;-3.878;2022-07-29T05:17:52;52791.94;;;-139.96;32.46
7906;BME280;13291;40.472;-3.878;2022-07-29T05:20:18;52813.94;;;-139.96;32.47
7906;BME280;13291;40.472;-3.878;2022-07-29T05:22:51;52803.94;;;-139.96;32.36
7906;BME280;13291;40.472;-3.878;2022-07-29T05:25:18;52781.94;;;-139.96;32.19
7906;BME280;13291;40.472;-3.878;2022-07-29T05:27:45;52783.94;;;-139.96;32.75
7906;BME280;13291;40.472;-3.878;2022-07-29T05:30:12;52793.94;;;-139.96;32.45
7906;BME280;13291;40.472;-3.878;2022-07-29T05:32:39;52815.94;;;-139.96;32.84
7906;BME280;13291;40.472;-3.878;2022-07-29T05:35:08;52809.94;;;-139.96;33.06
7906;BME280;13291;40.472;-3.878;2022-07-29T05:37:35;52819.94;;;-139.96;33.13
7906;BME280;13291;40.472;-3.878;2022-07-29T05:40:02;52799.94;;;-139.96;32.81
7906;BME280;13291;40.472;-3.878;2022-07-29T05:42:29;52801.94;;;-139.96;32.51
7906;BME280;13291;40.472;-3.878;2022-07-29T05:44:56;52809.94;;;-139.96;32.55
7906;BME280;13291;40.472;-3.878;2022-07-29T05:47:24;52797.94;;;-139.96;32.82
7906;BME280;13291;40.472;-3.878;2022-07-29T05:49:51;52813.94;;;-139.96;32.64
7906;BME280;13291;40.472;-3.878;2022-07-29T05:52:20;52813.94;;;-139.96;32.23
7906;BME280;13291;40.472;-3.878;2022-07-29T05:54:47;52821.94;;;-139.96;32.63
7906;BME280;13291;40.472;-3.878;2022-07-29T05:57:17;52805.94;;;-139.96;32.82
7906;BME280;13291;40.472;-3.878;2022-07-29T05:59:45;52833.97;;;-139.96;32.83
7906;BME280;13291;40.472;-3.878;2022-07-29T06:02:12;52815.94;;;-139.96;32.59
7906;BME280;13291;40.472;-3.878;2022-07-29T06:04:38;52803.94;;;-139.96;32.69
7906;BME280;13291;40.472;-3.878;2022-07-29T06:07:06;52815.94;;;-139.96;33.25
7906;BME280;13291;40.472;-3.878;2022-07-29T06:09:34;52791.94;;;-139.96;33.22
7906;BME280;13291;40.472;-3.878;2022-07-29T06:12:01;52803.94;;;-139.96;33.49
7906;BME280;13291;40.472;-3.878;2022-07-29T06:14:28;52799.94;;;-139.96;33.98
7906;BME280;13291;40.472;-3.878;2022-07-29T06:16:55;52805.94;;;-139.96;33.43
7906;BME280;13291;40.472;-3.878;2022-07-29T06:19:22;52809.94;;;-139.96;33.63
7906;BME280;13291;40.472;-3.878;2022-07-29T06:21:49;52825.94;;;-139.96;33.27
7906;BME280;13291;40.472;-3.878;2022-07-29T06:24:16;52821.94;;;-139.96;33.18
7906;BME280;13291;40.472;-3.878;2022-07-29T06:26:44;52823.94;;;-139.96;33.49
7906;BME280;13291;40.472;-3.878;2022-07-29T06:29:11;52813.94;;;-139.96;33.44
7906;BME280;13291;40.472;-3.878;2022-07-29T06:31:38;52801.94;;;-139.96;33.54
7906;BME280;13291;40.472;-3.878;2022-07-29T06:34:05;52803.94;;;-139.96;33.51
7906;BME280;13291;40.472;-3.878;2022-07-29T06:36:34;52791.94;;;-139.96;33.96
7906;BME280;13291;40.472;-3.878;2022-07-29T06:39:03;52801.94;;;-139.96;34.35
7906;BME280;13291;40.472;-3.878;2022-07-29T06:41:30;52807.94;;;-139.96;34.56
7906;BME280;13291;40.472;-3.878;2022-07-29T06:43:58;52801.94;;;-139.96;35.31
7906;BME280;13291;40.472;-3.878;2022-07-29T06:46:25;52823.94;;;-139.96;35.08
7906;BME280;13291;40.472;-3.878;2022-07-29T06:48:52;52791.94;;;-139.96;34.95
7906;BME280;13291;40.472;-3.878;2022-07-29T06:51:20;52809.94;;;-139.96;35.46
7906;BME280;13291;40.472;-3.878;2022-07-29T06:53:47;52795.94;;;-139.96;35.24
7906;BME280;13291;40.472;-3.878;2022-07-29T06:56:14;52797.94;;;-139.96;35.45
7906;BME280;13291;40.472;-3.878;2022-07-29T06:58:41;52825.94;;;-139.96;35.14
7906;BME280;13291;40.472;-3.878;2022-07-29T07:01:09;52821.94;;;-139.96;34.98
7906;BME280;13291;40.472;-3.878;2022-07-29T07:03:36;52793.94;;;-139.96;35.21
7906;BME280;13291;40.472;-3.878;2022-07-29T07:06:03;52831.97;;;-139.96;34.86
7906;BME280;13291;40.472;-3.878;2022-07-29T07:08:30;52783.94;;;-139.96;35.03
7906;BME280;13291;40.472;-3.878;2022-07-29T07:10:57;52809.94;;;-139.96;34.45
7906;BME280;13291;40.472;-3.878;2022-07-29T07:13:24;52815.94;;;-139.96;34.75
7906;BME280;13291;40.472;-3.878;2022-07-29T07:15:50;52837.97;;;-139.96;34.33
7906;BME280;13291;40.472;-3.878;2022-07-29T07:18:19;52789.94;;;-139.96;34.81
7906;BME280;13291;40.472;-3.878;2022-07-29T07:20:46;52813.94;;;-139.96;35.03
7906;BME280;13291;40.472;-3.878;2022-07-29T07:23:13;52821.94;;;-139.96;35.07
7906;BME280;13291;40.472;-3.878;2022-07-29T07:25:39;52777.94;;;-139.96;34.62
7906;BME280;13291;40.472;-3.878;2022-07-29T07:28:07;52797.94;;;-139.96;34.79
7906;BME280;13291;40.472;-3.878;2022-07-29T07:30:34;52813.94;;;-139.96;34.86
7906;BME280;13291;40.472;-3.878;2022-07-29T07:33:01;52783.94;;;-139.96;34.63
7906;BME280;13291;40.472;-3.878;2022-07-29T07:35:29;52805.94;;;-139.96;34.50
7906;BME280;13291;40.472;-3.878;2022-07-29T07:37:57;52795.94;;;-139.96;34.47
7906;BME280;13291;40.472;-3.878;2022-07-29T07:40:24;52815.94;;;-139.96;34.86
7906;BME280;13291;40.472;-3.878;2022-07-29T07:42:51;52789.94;;;-139.96;34.63
7906;BME280;13291;40.472;-3.878;2022-07-29T07:45:18;52793.94;;;-139.96;34.76
7906;BME280;13291;40.472;-3.878;2022-07-29T07:47:45;52797.94;;;-139.96;34.93
7906;BME280;13291;40.472;-3.878;2022-07-29T07:50:12;52797.94;;;-139.96;34.50
7906;BME280;13291;40.472;-3.878;2022-07-29T07:52:51;52779.94;;;-139.96;33.75
7906;BME280;13291;40.472;-3.878;2022-07-29T07:55:19;52785.94;;;-139.96;33.81
7906;BME280;13291;40.472;-3.878;2022-07-29T07:57:46;52765.94;;;-139.96;33.42
7906;BME280;13291;40.472;-3.878;2022-07-29T08:00:15;52793.94;;;-139.96;33.99
7906;BME280;13291;40.472;-3.878;2022-07-29T08:02:42;52781.94;;;-139.96;34.84
7906;BME280;13291;40.472;-3.878;2022-07-29T08:05:11;52803.94;;;-139.96;34.39
7906;BME280;13291;40.472;-3.878;2022-07-29T08:07:42;52771.94;;;-139.96;34.27
7906;BME280;13291;40.472;-3.878;2022-07-29T08:10:10;52753.94;;;-139.96;34.33
7906;BME280;13291;40.472;-3.878;2022-07-29T08:12:37;52769.94;;;-139.96;34.28
7906;BME280;13291;40.472;-3.878;2022-07-29T08:15:05;52765.94;;;-139.96;34.46
7906;BME280;13291;40.472;-3.878;2022-07-29T08:17:33;52809.94;;;-139.96;34.58
7906;BME280;13291;40.472;-3.878;2022-07-29T08:20:00;52777.94;;;-139.96;34.24
7906;BME280;13291;40.472;-3.878;2022-07-29T08:22:27;52797.94;;;-139.96;34.36
7906;BME280;13291;40.472;-3.878;2022-07-29T08:24:54;52789.94;;;-139.96;34.66
7906;BME280;13291;40.472;-3.878;2022-07-29T08:27:23;52779.94;;;-139.96;34.09
7906;BME280;13291;40.472;-3.878;2022-07-29T08:29:51;52769.94;;;-139.96;34.44
7906;BME280;13291;40.472;-3.878;2022-07-29T08:32:18;52761.94;;;-139.96;34.62
7906;BME280;13291;40.472;-3.878;2022-07-29T08:34:45;52777.94;;;-139.96;34.59
7906;BME280;13291;40.472;-3.878;2022-07-29T08:37:12;52773.94;;;-139.96;34.33
7906;BME280;13291;40.472;-3.878;2022-07-29T08:39:39;52783.94;;;-139.96;34.32
7906;BME280;13291;40.472;-3.878;2022-07-29T08:42:06;52785.94;;;-139.96;33.66
7906;BME280;13291;40.472;-3.878;2022-07-29T08:44:36;52773.94;;;-139.96;34.07
7906;BME280;13291;40.472;-3.878;2022-07-29T08:47:03;52735.94;;;-139.96;34.24
7906;BME280;13291;40.472;-3.878;2022-07-29T08:49:33;52787.94;;;-139.96;34.34
7906;BME280;13291;40.472;-3.878;2022-07-29T08:52:01;52777.94;;;-139.96;34.38
7906;BME280;13291;40.472;-3.878;2022-07-29T08:54:28;52769.94;;;-139.96;34.00
7906;BME280;13291;40.472;-3.878;2022-07-29T08:56:55;52779.94;;;-139.96;33.56
7906;BME280;13291;40.472;-3.878;2022-07-29T08:59:24;52773.94;;;-139.96;33.08
7906;BME280;13291;40.472;-3.878;2022-07-29T09:01:54;52747.94;;;-139.96;33.39
7906;BME280;13291;40.472;-3.878;2022-07-29T09:04:22;52767.94;;;-139.96;33.95
7906;BME280;13291;40.472;-3.878;2022-07-29T09:06:52;52755.94;;;-139.96;34.18
7906;BME280;13291;40.472;-3.878;2022-07-29T09:09:21;52785.94;;;-139.96;33.40
7906;BME280;13291;40.472;-3.878;2022-07-29T09:11:48;52773.94;;;-139.96;33.21
7906;BME280;13291;40.472;-3.878;2022-07-29T09:14:15;52769.94;;;-139.96;32.65
7906;BME280;13291;40.472;-3.878;2022-07-29T09:16:50;52773.94;;;-139.96;32.59
7906;BME280;13291;40.472;-3.878;2022-07-29T09:19:23;52767.94;;;-139.96;32.99
7906;BME280;13291;40.472;-3.878;2022-07-29T09:21:50;52783.94;;;-139.96;33.58
7906;BME280;13291;40.472;-3.878;2022-07-29T09:24:36;52767.94;;;-139.96;32.12
7906;BME280;13291;40.472;-3.878;2022-07-29T09:27:09;52749.94;;;-139.96;32.15
7906;BME280;13291;40.472;-3.878;2022-07-29T09:29:36;52749.94;;;-139.96;31.81
7906;BME280;13291;40.472;-3.878;2022-07-29T09:32:08;52775.94;;;-139.96;32.74
7906;BME280;13291;40.472;-3.878;2022-07-29T09:34:37;52775.94;;;-139.96;33.34
7906;BME280;13291;40.472;-3.878;2022-07-29T09:37:04;52757.94;;;-139.96;33.02
7906;BME280;13291;40.472;-3.878;2022-07-29T09:39:33;52757.94;;;-139.96;33.60
7906;BME280;13291;40.472;-3.878;2022-07-29T09:42:03;52753.94;;;-139.96;32.15
7906;BME280;13291;40.472;-3.878;2022-07-29T09:44:44;52747.94;;;-139.96;32.58
7906;BME280;13291;40.472;-3.878;2022-07-29T09:47:11;52773.94;;;-139.96;31.99
7906;BME280;13291;40.472;-3.878;2022-07-29T09:49:53;52783.94;;;-139.96;31.33
7906;BME280;13291;40.472;-3.878;2022-07-29T09:52:20;52747.94;;;-139.96;31.64
7906;BME280;13291;40.472;-3.878;2022-07-29T09:54:47;52739.94;;;-139.96;30.29
7906;BME280;13291;40.472;-3.878;2022-07-29T09:57:25;52761.94;;;-139.96;30.26
7906;BME280;13291;40.472;-3.878;2022-07-29T09:59:57;52745.94;;;-139.96;29.81
7906;BME280;13291;40.472;-3.878;2022-07-29T10:02:29;52745.94;;;-139.96;30.34
7906;BME280;13291;40.472;-3.878;2022-07-29T10:04:58;52737.94;;;-139.96;31.50
7906;BME280;13291;40.472;-3.878;2022-07-29T10:07:25;52775.94;;;-139.96;29.88
7906;BME280;13291;40.472;-3.878;2022-07-29T10:09:54;52719.94;;;-139.96;29.23
7906;BME280;13291;40.472;-3.878;2022-07-29T10:12:21;52777.94;;;-139.96;29.88
7906;BME280;13291;40.472;-3.878;2022-07-29T10:14:48;52773.94;;;-139.96;29.97
7906;BME280;13291;40.472;-3.878;2022-07-29T10:17:17;52761.94;;;-139.96;29.06
7906;BME280;13291;40.472;-3.878;2022-07-29T10:19:44;52753.94;;;-139.96;29.86
7906;BME280;13291;40.472;-3.878;2022-07-29T10:22:13;52745.94;;;-139.96;30.03
7906;BME280;13291;40.472;-3.878;2022-07-29T10:24:39;52701.94;;;-139.96;29.80
7906;BME280;13291;40.472;-3.878;2022-07-29T10:27:08;52727.94;;;-139.96;28.79
7906;BME280;13291;40.472;-3.878;2022-07-29T10:29:35;52749.94;;;-139.96;28.36
7906;BME280;13291;40.472;-3.878;2022-07-29T10:32:22;52711.94;;;-139.96;28.44
7906;BME280;13291;40.472;-3.878;2022-07-29T10:35:22;52741.94;;;-139.96;28.81
7906;BME280;13291;40.472;-3.878;2022-07-29T10:38:21;52697.94;;;-139.96;28.75
7906;BME280;13291;40.472;-3.878;2022-07-29T10:41:00;52721.94;;;-139.96;28.79
7906;BME280;13291;40.472;-3.878;2022-07-29T10:43:46;52727.94;;;-139.96;29.06
7906;BME280;13291;40.472;-3.878;2022-07-29T10:46:14;52725.94;;;-139.96;27.94
7906;BME280;13291;40.472;-3.878;2022-07-29T10:49:06;52741.94;;;-139.96;27.99
7906;BME280;13291;40.472;-3.878;2022-07-29T10:51:55;52727.94;;;-139.96;28.17
7906;BME280;13291;40.472;-3.878;2022-07-29T10:54:50;52697.94;;;-139.96;28.22
7906;BME280;13291;40.472;-3.878;2022-07-29T10:57:20;52709.94;;;-139.96;27.63
7906;BME280;13291;40.472;-3.878;2022-07-29T10:59:48;52709.94;;;-139.96;27.35
7906;BME280;13291;40.472;-3.878;2022-07-29T11:02:41;52725.94;;;-139.96;27.28
7906;BME280;13291;40.472;-3.878;2022-07-29T11:05:10;52719.94;;;-139.96;26.93
7906;BME280;13291;40.472;-3.878;2022-07-29T11:07:39;52725.94;;;-139.96;28.70
7906;BME280;13291;40.472;-3.878;2022-07-29T11:10:27;52709.94;;;-139.96;27.75
7906;BME280;13291;40.472;-3.878;2022-07-29T11:12:53;52705.94;;;-139.96;27.03
7906;BME280;13291;40.472;-3.878;2022-07-29T11:15:21;52719.94;;;-139.96;26.67
7906;BME280;13291;40.472;-3.878;2022-07-29T11:18:08;52725.94;;;-139.96;26.69
7906;BME280;13291;40.472;-3.878;2022-07-29T11:20:39;52705.94;;;-139.96;26.21
7906;BME280;13291;40.472;-3.878;2022-07-29T11:23:24;52713.94;;;-139.96;26.26
7906;BME280;13291;40.472;-3.878;2022-07-29T11:26:15;52709.94;;;-139.96;26.15
7906;BME280;13291;40.472;-3.878;2022-07-29T11:28:59;52689.94;;;-139.96;25.83
7906;BME280;13291;40.472;-3.878;2022-07-29T11:31:36;52709.94;;;-139.96;25.50
7906;BME280;13291;40.472;-3.878;2022-07-29T11:34:20;52725.94;;;-139.96;25.32
7906;BME280;13291;40.472;-3.878;2022-07-29T11:37:19;52699.94;;;-139.96;25.52
7906;BME280;13291;40.472;-3.878;2022-07-29T11:42:47;52689.94;;;-139.96;25.33
7906;BME280;13291;40.472;-3.878;2022-07-29T11:45:17;52719.94;;;-139.96;24.67
7906;BME280;13291;40.472;-3.878;2022-07-29T11:47:50;52683.94;;;-139.96;24.94
7906;BME280;13291;40.472;-3.878;2022-07-29T11:50:27;52699.94;;;-139.96;25.02
7906;BME280;13291;40.472;-3.878;2022-07-29T11:52:54;52697.94;;;-139.96;24.04
7906;BME280;13291;40.472;-3.878;2022-07-29T11:55:22;52693.94;;;-139.96;24.23
7906;BME280;13291;40.472;-3.878;2022-07-29T11:57:52;52669.94;;;-139.96;24.81
7906;BME280;13291;40.472;-3.878;2022-07-29T12:00:26;52707.94;;;-139.96;24.39
7906;BME280;13291;40.472;-3.878;2022-07-29T12:02:54;52689.94;;;-139.96;24.05
7906;BME280;13291;40.472;-3.878;2022-07-29T12:05:21;52659.94;;;-139.96;24.32
7906;BME280;13291;40.472;-3.878;2022-07-29T12:08:04;52705.94;;;-139.96;24.58
7906;BME280;13291;40.472;-3.878;2022-07-29T12:10:31;52681.94;;;-139.96;24.61
7906;BME280;13291;40.472;-3.878;2022-07-29T12:12:59;52701.94;;;-139.96;23.70
7906;BME280;13291;40.472;-3.878;2022-07-29T12:15:26;52671.94;;;-139.96;23.72
7906;BME280;13291;40.472;-3.878;2022-07-29T12:17:53;52683.94;;;-139.96;23.69
7906;BME280;13291;40.472;-3.878;2022-07-29T12:20:24;52679.94;;;-139.96;23.92
7906;BME280;13291;40.472;-3.878;2022-07-29T12:22:53;52669.94;;;-139.96;23.74
7906;BME280;13291;40.472;-3.878;2022-07-29T12:25:21;52685.94;;;-139.96;23.80
7906;BME280;13291;40.472;-3.878;2022-07-29T12:27:57;52637.94;;;-139.96;23.93
7906;BME280;13291;40.472;-3.878;2022-07-29T12:30:35;52667.94;;;-139.96;24.25
7906;BME280;13291;40.472;-3.878;2022-07-29T12:33:11;52675.94;;;-139.96;23.55
7906;BME280;13291;40.472;-3.878;2022-07-29T12:35:39;52685.94;;;-139.96;23.75
7906;BME280;13291;40.472;-3.878;2022-07-29T12:38:06;52651.94;;;-139.96;24.06
7906;BME280;13291;40.472;-3.878;2022-07-29T12:40:33;52685.94;;;-139.96;23.91
7906;BME280;13291;40.472;-3.878;2022-07-29T12:43:11;52643.94;;;-139.96;23.59
7906;BME280;13291;40.472;-3.878;2022-07-29T12:45:41;52665.94;;;-139.96;23.65
7906;BME280;13291;40.472;-3.878;2022-07-29T12:48:08;52659.94;;;-139.96;23.81
7906;BME280;13291;40.472;-3.878;2022-07-29T12:50:36;52665.94;;;-139.96;22.70
7906;BME280;13291;40.472;-3.878;2022-07-29T12:53:11;52659.94;;;-139.96;22.57
7906;BME280;13291;40.472;-3.878;2022-07-29T12:55:40;52657.94;;;-139.96;22.02
7906;BME280;13291;40.472;-3.878;2022-07-29T12:58:07;52633.94;;;-139.96;22.21